Time;durP1;ratioP1;P1;durP2;ratioP2;P2;SDS_P1;SDS_P2;PMS_P1;PMS_P2;Temp;Humidity;BMP_temperature;BMP_pressure;BME280_temperature;BME280_humidity;BME280_pressure;Samples;Min_cycle;Max_cycle;Signal;HPM_P1;HPM_P2
2023/01/02 00:00:25;;;;;;;5.65;5.35;;;;;;;11.68;100.00;100783.91;6061080;23;20086;-71
2023/01/02 00:02:51;;;;;;;7.80;5.00;;;;;;;10.70;100.00;100625.47;6061869;23;20092;-71
2023/01/02 00:05:18;;;;;;;5.95;5.60;;;;;;;11.24;100.00;100706.59;6059226;23;20072;-71
2023/01/02 00:07:45;;;;;;;5.90;5.43;;;;;;;11.33;100.00;100719.22;6061595;23;20013;-72
2023/01/02 00:10:11;;;;;;;5.00;4.70;;;;;;;11.59;100.00;100753.75;6057447;23;20032;-71
2023/01/02 00:12:38;;;;;;;7.00;5.45;;;;;;;11.81;100.00;100789.31;6056983;23;20018;-71
2023/01/02 00:15:05;;;;;;;6.28;5.28;;;;;;;11.80;100.00;100788.47;6046133;23;20019;-71
2023/01/02 00:17:31;;;;;;;6.53;5.18;;;;;;;11.78;100.00;100785.94;6084102;23;20018;-72
2023/01/02 00:19:57;;;;;;;5.05;4.75;;;;;;;11.37;100.00;100723.38;6055682;23;20018;-71
2023/01/02 00:22:24;;;;;;;7.38;5.00;;;;;;;11.76;100.00;100785.16;6075126;23;20010;-72
2023/01/02 00:24:51;;;;;;;7.78;5.30;;;;;;;11.72;100.00;100781.03;6050581;23;20014;-71
2023/01/02 00:27:17;;;;;;;5.97;5.47;;;;;;;11.47;100.00;100751.78;6069042;23;20022;-73
2023/01/02 00:29:44;;;;;;;5.30;5.00;;;;;;;11.66;100.00;100781.34;6023747;23;20047;-72
2023/01/02 00:32:10;;;;;;;7.18;5.60;;;;;;;11.55;100.00;100757.47;6065399;23;20693;-72
2023/01/02 00:34:36;;;;;;;9.23;5.60;;;;;;;11.62;100.00;100779.84;6054797;23;20034;-71
2023/01/02 00:37:03;;;;;;;5.75;5.28;;;;;;;11.62;100.00;100776.38;6049951;23;20013;-72
2023/01/02 00:39:29;;;;;;;9.15;5.25;;;;;;;11.58;100.00;100783.56;6008451;23;20508;-71
2023/01/02 00:41:56;;;;;;;5.40;5.10;;;;;;;11.55;100.00;100771.44;6054096;23;20034;-71
2023/01/02 00:44:22;;;;;;;5.95;5.40;;;;;;;11.51;100.00;100764.66;6039736;23;20814;-72
2023/01/02 00:46:48;;;;;;;5.28;4.95;;;;;;;10.37;100.00;100583.53;6044832;23;20682;-71
2023/01/02 00:49:17;;;;;;;5.10;4.80;;;;;;;11.11;100.00;100702.94;6083407;23;20014;-72
2023/01/02 00:51:44;;;;;;;5.30;4.88;;;;;;;11.47;100.00;100752.63;6055779;23;20085;-72
2023/01/02 00:54:10;;;;;;;5.40;5.10;;;;;;;11.35;100.00;100755.94;6080692;23;20084;-72
2023/01/02 00:56:36;;;;;;;6.25;5.75;;;;;;;11.44;100.00;100755.41;6054599;23;20029;-72
2023/01/02 00:59:03;;;;;;;9.98;5.30;;;;;;;11.45;100.00;100753.66;6066442;23;20094;-71
2023/01/02 01:01:29;;;;;;;5.28;4.97;;;;;;;10.78;100.00;100649.56;6052710;23;20019;-71
2023/01/02 01:03:56;;;;;;;5.20;4.90;;;;;;;11.22;100.00;100733.88;6076859;23;20052;-71
2023/01/02 01:06:22;;;;;;;5.60;5.22;;;;;;;11.47;100.00;100757.88;6059368;23;20662;-72
2023/01/02 01:08:48;;;;;;;5.68;5.30;;;;;;;11.26;100.00;100738.03;6075113;23;20026;-72
2023/01/02 01:11:16;;;;;;;5.60;5.10;;;;;;;11.03;100.00;100681.50;6055603;23;20088;-72
2023/01/02 01:13:43;;;;;;;5.88;5.38;;;;;;;11.07;100.00;100676.00;6084244;23;20018;-72
2023/01/02 01:16:12;;;;;;;5.63;5.25;;;;;;;11.29;100.00;100712.44;6033614;23;20074;-72
2023/01/02 01:18:39;;;;;;;5.10;4.82;;;;;;;11.46;100.00;100721.16;6057032;23;20018;-72
2023/01/02 01:21:23;;;;;;;5.53;5.05;;;;;;;11.64;100.00;100758.72;6056706;23;20691;-72
2023/01/02 01:23:51;;;;;;;6.07;5.50;;;;;;;10.78;100.00;100617.19;6054607;23;20085;-72
2023/01/02 01:26:19;;;;;;;5.28;4.80;;;;;;;10.94;100.00;100633.81;6083503;23;20264;-72
2023/01/02 01:28:46;;;;;;;6.22;5.82;;;;;;;11.77;100.00;100760.59;6078104;23;20054;-71
2023/01/02 01:31:15;;;;;;;5.10;4.80;;;;;;;11.80;100.00;100758.72;6053694;23;20097;-71
2023/01/02 01:33:43;;;;;;;6.15;5.03;;;;;;;11.77;100.00;100760.59;6076814;23;20022;-72
2023/01/02 01:36:15;;;;;;;5.50;5.07;;;;;;;11.21;100.00;100671.78;6053576;23;20027;-72
2023/01/02 01:38:42;;;;;;;6.45;5.47;;;;;;;11.81;100.00;100761.28;6065643;23;20026;-72
2023/01/02 01:41:15;;;;;;;6.28;5.18;;;;;;;11.82;100.00;100772.63;6056241;23;20065;-73
2023/01/02 01:43:49;;;;;;;;;;;;;;;11.82;100.00;100768.22;6058799;23;20034;-73
2023/01/02 01:46:28;;;;;;;5.22;4.80;;;;;;;11.83;100.00;100775.19;6060300;23;19902;-73
2023/01/02 01:49:11;;;;;;;5.95;5.20;;;;;;;11.87;100.00;100778.50;6056457;23;20154;-72
2023/01/02 01:52:00;;;;;;;5.95;5.45;;;;;;;11.91;100.00;100777.41;6079205;23;20041;-71
2023/01/02 01:54:31;;;;;;;5.88;5.38;;;;;;;11.60;100.00;100736.19;6047488;23;20043;-72
2023/01/02 01:57:30;;;;;;;10.25;5.15;;;;;;;11.94;100.00;100775.44;6057734;23;20035;-72
2023/01/02 01:59:59;;;;;;;13.18;5.70;;;;;;;11.75;100.00;100757.19;6083641;23;20022;-72
2023/01/02 02:02:28;;;;;;;5.47;5.13;;;;;;;11.80;100.00;100756.94;6055421;23;20021;-70
2023/01/02 02:04:59;;;;;;;5.40;5.10;;;;;;;11.24;100.00;100675.06;6054337;23;20283;-71
2023/01/02 02:07:27;;;;;;;5.30;5.00;;;;;;;11.74;100.00;100768.63;6080719;23;20017;-70
2023/01/02 02:10:17;;;;;;;5.22;4.93;;;;;;;11.91;100.00;100787.94;6049294;23;20050;-70
2023/01/02 02:12:44;;;;;;;5.85;5.45;;;;;;;11.17;100.00;100687.69;6081796;23;20025;-70
2023/01/02 02:15:16;;;;;;;8.82;5.32;;;;;;;11.42;100.00;100709.13;6051755;23;20093;-71
2023/01/02 02:17:59;;;;;;;5.30;5.00;;;;;;;11.66;100.00;100762.97;6079522;23;21996;-71
2023/01/02 02:21:01;;;;;;;5.35;4.95;;;;;;;11.90;100.00;100789.69;6025492;23;20046;-71
2023/01/02 02:23:40;;;;;;;7.90;5.40;;;;;;;11.92;100.00;100784.34;6015896;23;20073;-71
2023/01/02 02:26:32;;;;;;;11.80;5.78;;;;;;;11.92;100.00;100789.63;6023577;23;20058;-71
2023/01/02 02:29:17;;;;;;;5.60;5.20;;;;;;;11.91;100.00;100795.81;6074650;23;20123;-71
2023/01/02 02:31:56;;;;;;;6.03;5.50;;;;;;;11.91;100.00;100794.03;6052977;23;20030;-71
2023/01/02 02:34:42;;;;;;;8.95;5.05;;;;;;;11.62;100.00;100744.81;6071267;23;20041;-71
2023/01/02 02:37:51;;;;;;;4.90;4.60;;;;;;;11.22;100.00;100674.31;6052030;23;20018;-71
2023/01/02 02:40:44;;;;;;;16.25;5.45;;;;;;;11.90;100.00;100787.06;6077987;23;20027;-71
2023/01/02 02:43:16;;;;;;;;;;;;;;;11.90;100.00;100781.81;6044721;23;20034;-71
2023/01/02 02:45:46;;;;;;;5.53;5.13;;;;;;;11.86;100.00;100764.47;6048592;23;19925;-70
2023/01/02 02:48:19;;;;;;;8.38;5.32;;;;;;;11.37;100.00;100675.25;6047553;23;20046;-71
2023/01/02 02:51:08;;;;;;;5.25;4.95;;;;;;;11.73;100.00;100724.06;6069577;23;20523;-72
2023/01/02 02:53:42;;;;;;;6.07;5.38;;;;;;;11.00;100.00;100621.28;6048370;23;20366;-71
2023/01/02 02:56:10;;;;;;;11.07;4.97;;;;;;;11.51;100.00;100703.38;6077517;23;20014;-71
2023/01/02 02:58:39;;;;;;;5.85;5.45;;;;;;;11.80;100.00;100756.09;6048576;23;20039;-71
2023/01/02 03:01:13;;;;;;;7.57;5.18;;;;;;;11.77;100.00;100746.59;6078407;23;20025;-70
2023/01/02 03:03:39;;;;;;;5.15;4.85;;;;;;;11.75;100.00;100751.09;6051377;23;20026;-71
2023/01/02 03:06:18;;;;;;;5.45;4.95;;;;;;;11.72;100.00;100757.34;6080296;23;20013;-70
2023/01/02 03:09:19;;;;;;;5.63;5.32;;;;;;;11.69;100.00;100769.84;6052034;23;20026;-70
2023/01/02 03:11:48;;;;;;;5.60;5.20;;;;;;;11.69;100.00;100788.25;6069990;23;20091;-72
2023/01/02 03:14:32;;;;;;;4.97;4.68;;;;;;;11.26;100.00;100725.75;6089829;23;20089;-71
2023/01/02 03:17:02;;;;;;;7.63;5.22;;;;;;;11.63;100.00;100784.19;6054678;23;20084;-70
2023/01/02 03:19:40;;;;;;;5.65;4.82;;;;;;;11.74;100.00;100784.41;6072898;23;20014;-70
2023/01/02 03:22:18;;;;;;;7.55;5.20;;;;;;;11.09;100.00;100689.91;6048263;23;20030;-71
2023/01/02 03:24:50;;;;;;;5.78;5.40;;;;;;;11.60;100.00;100779.06;6076766;23;20096;-70
2023/01/02 03:27:24;;;;;;;6.75;5.63;;;;;;;11.24;100.00;100718.88;6051889;23;20011;-71
2023/01/02 03:30:01;;;;;;;9.65;5.43;;;;;;;11.52;100.00;100753.22;6076283;23;20018;-70
2023/01/02 03:32:32;;;;;;;6.40;5.00;;;;;;;11.43;100.00;100777.38;6050859;23;20034;-71
2023/01/02 03:35:04;;;;;;;9.65;5.00;;;;;;;10.27;100.00;100571.81;6076356;23;20341;-70
2023/01/02 03:37:33;;;;;;;5.40;4.90;;;;;;;11.01;100.00;100710.47;6051842;23;20014;-71
2023/01/02 03:40:06;;;;;;;5.63;5.30;;;;;;;11.55;100.00;100776.72;6044376;23;20464;-71
2023/01/02 03:42:44;;;;;;;6.45;4.95;;;;;;;11.36;100.00;100750.56;6074616;23;20030;-71
2023/01/02 03:45:20;;;;;;;8.73;4.60;;;;;;;11.32;100.00;100737.69;6050839;23;20022;-71
2023/01/02 03:48:25;;;;;;;5.65;5.25;;;;;;;11.62;100.00;100803.50;6033000;23;20117;-70
2023/01/02 03:50:55;;;;;;;6.70;5.60;;;;;;;11.39;100.00;100752.22;6058912;23;20032;-70
2023/01/02 03:53:22;;;;;;;8.55;4.88;;;;;;;11.01;100.00;100696.50;6052005;23;20018;-71
2023/01/02 03:56:16;;;;;;;5.78;5.22;;;;;;;10.49;100.00;100606.50;6057691;23;20101;-72
2023/01/02 03:58:53;;;;;;;5.45;5.15;;;;;;;11.66;100.00;100801.56;6053443;23;20385;-70
2023/01/02 04:01:53;;;;;;;5.25;4.72;;;;;;;11.71;100.00;100810.03;6078033;23;20060;-70
2023/01/02 04:04:26;;;;;;;4.90;4.60;;;;;;;11.70;100.00;100800.44;6023227;23;20116;-72
2023/01/02 04:06:58;;;;;;;5.60;5.13;;;;;;;11.71;100.00;100813.50;6080725;23;20022;-72
2023/01/02 04:09:29;;;;;;;5.80;5.32;;;;;;;11.41;100.00;100746.88;6058872;23;20136;-71
2023/01/02 04:12:02;;;;;;;4.93;4.50;;;;;;;11.54;100.00;100774.16;6061314;23;20486;-72
2023/01/02 04:14:36;;;;;;;5.65;5.20;;;;;;;11.54;100.00;100772.38;6056406;23;20394;-71
2023/01/02 04:17:18;;;;;;;7.18;5.75;;;;;;;11.67;100.00;100801.47;6082963;23;20031;-73
2023/01/02 04:20:14;;;;;;;6.38;5.80;;;;;;;11.64;100.00;100787.66;6057787;23;20017;-71
2023/01/02 04:22:59;;;;;;;6.00;5.50;;;;;;;11.64;100.00;100795.53;6080660;23;20084;-71
2023/01/02 04:25:35;;;;;;;5.47;5.05;;;;;;;11.11;100.00;100734.47;6059330;23;20444;-71
2023/01/02 04:28:08;;;;;;;5.35;5.03;;;;;;;11.42;100.00;100791.44;6082820;23;20481;-72
2023/01/02 04:30:39;;;;;;;7.93;5.25;;;;;;;10.87;100.00;100700.72;6042967;23;20575;-71
2023/01/02 04:33:09;;;;;;;5.15;4.75;;;;;;;11.21;100.00;100761.09;6056511;23;20434;-71
2023/01/02 04:39:28;;;;;;;6.18;5.20;;;;;;;11.34;100.00;100785.75;6061726;23;20042;-71
2023/01/02 04:42:05;;;;;;;12.32;5.25;;;;;;;11.52;100.00;100818.06;6068478;23;20054;-71
2023/01/02 04:44:31;;;;;;;5.10;4.75;;;;;;;11.24;100.00;100771.41;6060712;23;20018;-72
2023/01/02 04:46:58;;;;;;;5.50;5.15;;;;;;;10.90;100.00;100715.44;6085776;23;20535;-72
2023/01/02 04:49:51;;;;;;;5.20;4.80;;;;;;;11.69;100.00;100830.31;6053493;23;20014;-72
2023/01/02 04:53:16;;;;;;;5.25;4.95;;;;;;;9.64;100.00;100491.19;6043662;23;20088;-73
2023/01/02 04:55:43;;;;;;;9.80;5.03;;;;;;;11.80;100.00;100835.81;5902846;24;20088;-72
2023/01/02 04:58:30;;;;;;;12.10;5.53;;;;;;;11.88;100.00;100851.19;6069655;23;20029;-72
2023/01/02 05:01:15;;;;;;;6.03;5.05;;;;;;;12.00;100.00;100868.09;6042189;23;20022;-72
2023/01/02 05:04:03;;;;;;;5.43;4.78;;;;;;;11.74;100.00;100807.22;6089680;23;20034;-71
2023/01/02 05:06:46;;;;;;;4.70;4.40;;;;;;;12.10;100.00;100866.66;6081968;23;20193;-71
2023/01/02 05:09:16;;;;;;;5.70;4.97;;;;;;;12.11;100.00;100863.09;6060584;23;20089;-71
2023/01/02 05:11:45;;;;;;;5.10;4.80;;;;;;;11.65;100.00;100792.81;6057358;23;20050;-72
2023/01/02 05:14:12;;;;;;;5.28;4.97;;;;;;;12.18;100.00;100869.69;6167830;18;20017;-76
2023/01/02 05:16:38;;;;;;;5.25;4.80;;;;;;;11.89;100.00;100824.84;6063233;23;20013;-76
2023/01/02 05:19:05;;;;;;;5.50;5.10;;;;;;;12.15;100.00;100854.09;6146669;23;20078;-78
2023/01/02 05:24:20;;;;;;;5.53;4.90;;;;;;;12.04;100.00;100817.00;6144214;23;20040;-76
2023/01/02 05:26:49;;;;;;;4.97;4.78;;;;;;;12.20;100.00;100852.03;6066803;23;20026;-76
2023/01/02 05:29:19;;;;;;;5.05;4.75;;;;;;;11.78;100.00;100780.69;6144389;23;20054;-75
2023/01/02 05:31:46;;;;;;;5.00;4.70;;;;;;;11.97;100.00;100806.84;6116445;23;20050;-77
2023/01/02 05:34:16;;;;;;;6.28;5.28;;;;;;;11.94;100.00;100799.09;6131783;23;20614;-76
2023/01/02 05:36:43;;;;;;;5.50;5.00;;;;;;;12.17;100.00;100849.59;6102850;23;20023;-76
2023/01/02 05:39:11;;;;;;;5.32;4.93;;;;;;;12.11;100.00;100824.47;6135647;23;20028;-76
2023/01/02 05:41:38;;;;;;;5.28;4.97;;;;;;;12.31;100.00;100868.06;6081442;23;20010;-78
2023/01/02 05:44:09;;;;;;;7.28;5.10;;;;;;;11.96;100.00;100818.28;6128644;23;20541;-76
2023/01/02 05:46:36;;;;;;;5.03;4.75;;;;;;;12.03;100.00;100807.41;6106019;23;20098;-76
2023/01/02 05:49:08;;;;;;;5.00;4.70;;;;;;;12.19;100.00;100847.72;6104594;23;20486;-76
2023/01/02 05:51:35;;;;;;;5.38;4.97;;;;;;;12.28;100.00;100834.03;6130770;23;20043;-77
2023/01/02 05:54:02;;;;;;;12.27;5.28;;;;;;;11.74;100.00;100778.31;6079850;23;20653;-77
2023/01/02 05:56:29;;;;;;;5.60;5.10;;;;;;;12.36;100.00;100873.06;6137669;23;20033;-77
2023/01/02 05:58:56;;;;;;;5.40;5.10;;;;;;;12.43;100.00;100871.78;6098696;23;20086;-76
2023/01/02 06:01:25;;;;;;;4.60;4.40;;;;;;;11.93;100.00;100792.16;6131120;23;20475;-74
2023/01/02 06:03:55;;;;;;;5.25;4.95;;;;;;;12.49;100.00;100887.25;6107634;23;20029;-75
2023/01/02 06:06:24;;;;;;;4.88;4.57;;;;;;;12.42;100.00;100875.34;6129962;23;20023;-75
2023/01/02 06:08:51;;;;;;;4.68;4.47;;;;;;;11.43;100.00;100722.19;6106648;23;20030;-76
2023/01/02 06:11:18;;;;;;;4.65;4.45;;;;;;;12.18;100.00;100852.13;6107305;23;20274;-75
2023/01/02 06:13:44;;;;;;;4.93;4.70;;;;;;;12.02;100.00;100818.88;6084763;23;20521;-76
2023/01/02 06:16:11;;;;;;;5.57;4.63;;;;;;;12.23;100.00;100865.03;6136029;23;20025;-75
2023/01/02 06:18:41;;;;;;;6.55;4.35;;;;;;;11.76;100.00;100792.22;6066962;23;20017;-77
2023/01/02 06:21:11;;;;;;;4.60;4.40;;;;;;;12.33;100.00;100883.78;6137545;23;20013;-76
2023/01/02 06:23:38;;;;;;;6.15;4.85;;;;;;;12.36;100.00;100889.69;6055765;23;20398;-77
2023/01/02 06:26:22;;;;;;;5.18;4.80;;;;;;;11.70;100.00;100790.78;6130695;23;20361;-76
2023/01/02 06:29:10;;;;;;;5.20;4.90;;;;;;;12.32;100.00;100877.66;6103678;23;20049;-75
2023/01/02 06:31:39;;;;;;;4.93;4.70;;;;;;;12.34;100.00;100891.56;6081817;23;20070;-76
2023/01/02 06:34:13;;;;;;;4.90;4.63;;;;;;;12.37;100.00;100887.94;6106118;23;20338;-75
2023/01/02 06:36:39;;;;;;;5.00;4.70;;;;;;;12.10;100.00;100845.59;6080231;23;20005;-77
2023/01/02 06:39:13;;;;;;;5.40;5.00;;;;;;;12.38;100.00;100890.47;6114411;23;20479;-76
2023/01/02 06:41:42;;;;;;;5.13;4.63;;;;;;;12.21;100.00;100864.28;6085297;23;20034;-75
2023/01/02 06:44:12;;;;;;;4.55;4.35;;;;;;;12.38;100.00;100890.47;6142656;23;20092;-76
2023/01/02 06:46:39;;;;;;;4.80;4.60;;;;;;;12.37;100.00;100904.56;6096952;23;20071;-75
2023/01/02 06:49:09;;;;;;;4.72;4.53;;;;;;;12.35;100.00;100897.72;6115093;23;20158;-77
2023/01/02 06:51:42;;;;;;;5.15;4.70;;;;;;;11.83;100.00;100829.56;6135311;23;20045;-77
2023/01/02 06:57:20;;;;;;;5.82;4.85;;;;;;;11.64;100.00;100795.53;6028834;23;20033;-75
2023/01/02 06:59:50;;;;;;;4.90;4.60;;;;;;;12.02;100.00;100872.31;6086026;23;20031;-74
2023/01/02 07:02:19;;;;;;;4.95;4.65;;;;;;;12.31;100.00;100912.81;6132369;18;20256;-71
2023/01/02 07:04:45;;;;;;;5.00;4.70;;;;;;;12.22;100.00;100907.22;6062842;23;20140;-72
2023/01/02 07:07:12;;;;;;;5.07;4.60;;;;;;;11.61;100.00;100807.06;6103538;23;20107;-72
2023/01/02 07:09:38;;;;;;;6.72;5.13;;;;;;;12.26;100.00;100929.78;6086365;23;20783;-72
2023/01/02 07:12:04;;;;;;;5.00;4.75;;;;;;;11.85;100.00;100883.75;6084175;23;20029;-72
2023/01/02 07:14:31;;;;;;;5.00;4.70;;;;;;;11.55;100.00;100845.03;6069932;23;20049;-71
2023/01/02 07:16:57;;;;;;;5.15;4.85;;;;;;;11.86;100.00;100895.13;6088003;23;20084;-71
2023/01/02 07:19:24;;;;;;;5.82;4.88;;;;;;;12.10;100.00;100941.16;6084489;23;20026;-71
2023/01/02 07:21:50;;;;;;;5.15;4.80;;;;;;;11.46;100.00;100850.78;6095815;23;20467;-71
2023/01/02 07:24:17;;;;;;;4.80;4.60;;;;;;;12.04;100.00;100953.78;6086255;23;20025;-72
2023/01/02 07:26:43;;;;;;;4.60;4.40;;;;;;;11.22;100.00;100821.41;6100854;23;20622;-71
2023/01/02 07:29:10;;;;;;;5.47;4.65;;;;;;;11.67;100.00;100896.13;6089569;23;20056;-71
2023/01/02 07:31:36;;;;;;;5.07;4.68;;;;;;;11.66;100.00;100909.34;6098290;23;20030;-71
2023/01/02 07:34:03;;;;;;;6.47;5.10;;;;;;;11.33;100.00;100868.16;6079390;23;20085;-72
2023/01/02 07:36:29;;;;;;;6.40;5.05;;;;;;;11.88;100.00;100953.75;6063523;23;20022;-72
2023/01/02 07:38:56;;;;;;;5.32;4.93;;;;;;;11.14;100.00;100839.34;6082304;23;20041;-71
2023/01/02 07:41:24;;;;;;;5.07;4.78;;;;;;;11.53;100.00;100935.44;6088605;23;20026;-72
2023/01/02 07:43:53;;;;;;;5.97;5.45;;;;;;;11.59;100.00;100945.63;6100618;23;20339;-72
2023/01/02 07:46:20;;;;;;;4.70;4.50;;;;;;;11.15;100.00;100873.44;6090361;23;20100;-71
2023/01/02 07:48:47;;;;;;;4.85;4.63;;;;;;;11.78;100.00;100983.13;6102121;23;20515;-71
2023/01/02 07:51:13;;;;;;;4.85;4.57;;;;;;;11.79;100.00;100994.53;6063318;23;20390;-72
2023/01/02 07:53:46;;;;;;;5.35;5.03;;;;;;;11.35;100.00;100939.88;6101027;23;20079;-72
2023/01/02 07:56:12;;;;;;;5.50;5.20;;;;;;;11.68;100.00;101000.31;6089988;23;20067;-72
2023/01/02 07:58:42;;;;;;;6.88;5.55;;;;;;;11.60;100.00;101002.50;6101435;23;20070;-72
2023/01/02 08:01:14;;;;;;;4.85;4.63;;;;;;;11.61;100.00;101003.38;6083480;23;20696;-72
2023/01/02 08:03:41;;;;;;;5.25;4.95;;;;;;;11.56;100.00;100996.56;6088333;23;20135;-72
2023/01/02 08:06:13;;;;;;;5.43;5.07;;;;;;;11.43;100.00;100989.41;6084929;23;20018;-73
2023/01/02 08:08:40;;;;;;;5.93;4.50;;;;;;;11.33;100.00;100986.38;6095427;23;20044;-72
2023/01/02 08:11:10;;;;;;;5.18;4.88;;;;;;;11.31;100.00;100990.88;6068153;23;20026;-72
2023/01/02 08:13:37;;;;;;;5.38;5.00;;;;;;;10.66;100.00;100883.78;6089037;23;20555;-71
2023/01/02 08:16:15;;;;;;;5.03;4.72;;;;;;;11.45;100.00;101034.84;6086523;23;20301;-73
2023/01/02 08:18:42;;;;;;;5.25;4.97;;;;;;;11.48;100.00;101035.53;6101460;23;20017;-74
2023/01/02 08:21:10;;;;;;;5.10;4.90;;;;;;;11.05;100.00;100982.50;6085840;23;20045;-73
2023/01/02 08:23:36;;;;;;;5.35;4.95;;;;;;;10.23;100.00;100851.75;6107560;23;20012;-72
2023/01/02 08:26:06;;;;;;;5.25;4.95;;;;;;;11.43;100.00;101044.59;6075811;23;20014;-71
2023/01/02 08:28:33;;;;;;;5.20;4.80;;;;;;;11.40;100.00;101053.47;6091129;23;20026;-73
2023/01/02 08:31:00;;;;;;;4.82;4.57;;;;;;;10.88;100.00;100967.56;6086520;23;20097;-70
2023/01/02 08:33:27;;;;;;;4.85;4.55;;;;;;;11.22;100.00;101039.44;6104151;23;20100;-72
2023/01/02 08:35:55;;;;;;;5.05;4.72;;;;;;;11.11;100.00;101029.50;6093584;23;20018;-72
2023/01/02 08:38:21;;;;;;;4.47;4.28;;;;;;;10.81;100.00;100981.09;6080900;23;20029;-71
2023/01/02 08:40:49;;;;;;;12.55;4.80;;;;;;;10.71;100.00;100973.66;6061009;23;20037;-71
2023/01/02 08:43:18;;;;;;;6.05;4.85;;;;;;;10.72;100.00;100974.50;6092283;23;20022;-71
2023/01/02 08:45:45;;;;;;;5.10;4.82;;;;;;;11.29;100.00;101068.94;6085820;23;20416;-73
2023/01/02 08:48:11;;;;;;;5.45;5.13;;;;;;;11.23;100.00;101066.59;6063652;23;20088;-72
2023/01/02 08:50:48;;;;;;;5.10;4.80;;;;;;;11.33;100.00;101073.09;6071880;23;20243;-71
2023/01/02 08:53:14;;;;;;;5.13;4.72;;;;;;;11.22;100.00;101080.66;6090103;23;20555;-71
2023/01/02 08:55:41;;;;;;;5.40;5.00;;;;;;;11.10;100.00;101068.94;6086139;23;20101;-71
2023/01/02 08:58:07;;;;;;;4.97;4.78;;;;;;;11.33;100.00;101102.00;6092483;23;20021;-72
2023/01/02 09:00:34;;;;;;;5.03;4.75;;;;;;;11.29;100.00;101090.78;6080925;23;20039;-72
2023/01/02 09:03:00;;;;;;;4.47;4.28;;;;;;;11.35;100.00;101102.78;6085850;23;20032;-70
2023/01/02 09:05:29;;;;;;;5.10;4.80;;;;;;;11.35;100.00;101098.38;6086776;23;20035;-71
2023/01/02 09:07:57;;;;;;;4.82;4.57;;;;;;;11.40;100.00;101111.28;6036823;23;20183;-72
2023/01/02 09:10:24;;;;;;;4.80;4.50;;;;;;;11.41;100.00;101130.53;6089719;23;20008;-73
2023/01/02 09:12:51;;;;;;;4.60;4.40;;;;;;;11.37;100.00;101129.84;6083664;23;20034;-73
2023/01/02 09:15:17;;;;;;;5.38;5.07;;;;;;;11.38;100.00;101142.91;6109112;23;20037;-73
2023/01/02 09:17:43;;;;;;;5.57;4.90;;;;;;;11.06;100.00;101098.91;6091730;23;20220;-72
2023/01/02 09:20:13;;;;;;;4.75;4.45;;;;;;;11.28;100.00;101151.28;6103344;23;20421;-72
2023/01/02 09:22:39;;;;;;;4.50;4.30;;;;;;;11.13;100.00;101156.34;6082402;23;20029;-71
2023/01/02 09:25:06;;;;;;;5.22;5.00;;;;;;;10.94;100.00;101153.75;6080604;23;20030;-73
2023/01/02 09:27:33;;;;;;;4.53;4.32;;;;;;;10.67;100.00;101099.88;6083430;23;20021;-71
2023/01/02 09:30:04;;;;;;;4.90;4.60;;;;;;;10.62;100.00;101105.31;6081094;23;20021;-67
2023/01/02 09:32:31;;;;;;;4.38;4.18;;;;;;;10.96;100.00;101187.78;6094946;23;20010;-67
2023/01/02 09:34:57;;;;;;;4.57;4.28;;;;;;;10.56;100.00;101156.34;6080783;23;20022;-67
2023/01/02 09:37:24;;;;;;;4.97;4.30;;;;;;;10.35;100.00;101157.28;6098035;23;20464;-68
2023/01/02 09:39:50;;;;;;;4.78;4.47;;;;;;;10.10;100.00;101128.59;6101604;23;20070;-67
2023/01/02 09:42:17;;;;;;;5.20;4.68;;;;;;;10.42;100.00;101200.69;6078878;23;20289;-68
2023/01/02 09:44:56;;;;;;;4.43;4.22;;;;;;;10.35;100.00;101204.50;6098852;23;20037;-67
2023/01/02 09:47:29;;;;;;;4.72;4.50;;;;;;;10.34;100.00;101211.53;6057176;23;20460;-68
2023/01/02 09:50:04;;;;;;;4.60;4.40;;;;;;;10.08;100.00;101165.41;6098742;23;20526;-68
2023/01/02 09:52:36;;;;;;;4.72;4.53;;;;;;;10.30;100.00;101211.72;6078148;23;20025;-69
2023/01/02 09:55:12;;;;;;;5.07;4.68;;;;;;;10.29;100.00;101221.31;6085521;23;20018;-68
2023/01/02 09:57:49;;;;;;;4.60;4.40;;;;;;;10.30;100.00;101236.19;6094240;23;20081;-67
2023/01/02 10:00:19;;;;;;;4.93;4.60;;;;;;;10.25;100.00;101232.88;6081165;23;20026;-68
2023/01/02 10:03:11;;;;;;;4.90;4.60;;;;;;;10.30;100.00;101240.56;6095913;23;20398;-69
2023/01/02 10:06:00;;;;;;;4.40;4.20;;;;;;;10.30;100.00;101256.31;6082119;23;20720;-68
2023/01/02 10:08:29;;;;;;;4.70;4.40;;;;;;;10.33;100.00;101261.44;6088030;23;20026;-68
2023/01/02 10:11:23;;;;;;;4.30;4.00;;;;;;;10.29;100.00;101255.44;6104296;23;20045;-68
2023/01/02 10:13:56;;;;;;;4.63;4.43;;;;;;;10.30;100.00;101257.19;6093445;23;20083;-68
2023/01/02 10:16:56;;;;;;;4.75;4.53;;;;;;;10.26;100.00;101258.16;6082703;23;20002;-69
2023/01/02 10:19:33;;;;;;;4.53;4.32;;;;;;;10.19;100.00;101254.13;6090677;23;20469;-68
2023/01/02 10:22:01;;;;;;;4.82;4.32;;;;;;;10.31;100.00;101279.88;6085723;23;20087;-68
2023/01/02 10:24:35;;;;;;;4.93;4.63;;;;;;;10.40;100.00;101272.53;6106021;23;20052;-68
2023/01/02 10:27:04;;;;;;;4.30;4.10;;;;;;;9.94;100.00;101199.19;6082129;23;20021;-69
2023/01/02 10:29:38;;;;;;;4.47;4.28;;;;;;;9.28;100.00;101076.13;6099705;23;20081;-68
2023/01/02 10:32:11;;;;;;;4.90;4.63;;;;;;;10.45;100.00;101270.56;6085211;23;20064;-68
2023/01/02 10:34:49;;;;;;;5.25;4.95;;;;;;;10.31;100.00;101277.25;6097202;23;20611;-68
2023/01/02 10:37:16;;;;;;;4.88;4.57;;;;;;;10.28;100.00;101272.06;6083949;23;20042;-68
2023/01/02 10:39:45;;;;;;;5.55;5.15;;;;;;;9.51;100.00;101157.25;6094093;23;20444;-68
2023/01/02 10:42:13;;;;;;;5.32;4.95;;;;;;;9.99;100.00;101253.16;6085665;23;20088;-69
2023/01/02 10:44:43;;;;;;;4.97;4.68;;;;;;;10.19;100.00;101291.69;6088191;23;20021;-68
2023/01/02 10:47:22;;;;;;;5.65;5.00;;;;;;;10.06;100.00;101255.53;6083647;23;20026;-69
2023/01/02 10:49:51;;;;;;;5.88;5.32;;;;;;;10.00;100.00;101256.63;6103838;23;20062;-69
2023/01/02 10:52:31;;;;;;;5.18;4.88;;;;;;;10.02;100.00;101261.81;6047295;23;20358;-68
2023/01/02 10:54:58;;;;;;;4.80;4.50;;;;;;;10.32;100.00;101306.94;6095522;23;20224;-71
2023/01/02 10:57:45;;;;;;;5.60;5.05;;;;;;;10.23;100.00;101291.56;6077854;23;20033;-72
2023/01/02 11:00:17;;;;;;;5.40;4.90;;;;;;;10.21;100.00;101290.78;6048091;23;20025;-71
2023/01/02 11:02:55;;;;;;;4.88;4.63;;;;;;;10.33;100.00;101306.88;6085112;23;20041;-71
2023/01/02 11:05:28;;;;;;;6.20;5.00;;;;;;;9.10;100.00;101090.81;6083681;23;20014;-73
2023/01/02 11:07:54;;;;;;;5.13;4.78;;;;;;;10.38;100.00;101297.06;6056195;23;20038;-70
2023/01/02 11:10:30;;;;;;;5.13;4.80;;;;;;;10.21;100.00;101265.41;6085338;23;20084;-71
2023/01/02 11:13:07;;;;;;;5.07;4.63;;;;;;;10.38;100.00;101276.09;6067942;23;20261;-71
2023/01/02 11:15:42;;;;;;;5.53;5.13;;;;;;;9.87;100.00;101203.00;6100871;23;20062;-71
2023/01/02 11:18:21;;;;;;;5.40;5.05;;;;;;;9.46;100.00;101127.78;6081193;23;20034;-72
2023/01/02 11:20:51;;;;;;;4.65;4.45;;;;;;;10.32;100.00;101302.56;6089887;23;20219;-72
2023/01/02 11:23:21;;;;;;;5.20;4.90;;;;;;;10.32;100.00;101310.44;6098499;23;20030;-69
2023/01/02 11:25:50;;;;;;;5.07;4.68;;;;;;;9.93;100.00;101256.03;6075119;23;20692;-68
2023/01/02 11:28:24;;;;;;;5.25;4.93;;;;;;;9.70;100.00;101230.75;6083271;23;20017;-69
2023/01/02 11:30:53;;;;;;;4.32;4.13;;;;;;;10.09;100.00;101305.25;6080897;23;20033;-70
2023/01/02 11:33:22;;;;;;;4.88;4.50;;;;;;;10.19;100.00;101311.81;6081960;23;20024;-70
2023/01/02 11:35:55;;;;;;;5.20;4.90;;;;;;;9.84;100.00;101217.06;6078271;23;20012;-69
2023/01/02 11:38:38;;;;;;;5.78;5.25;;;;;;;10.27;100.00;101273.00;6091198;23;20036;-69
2023/01/02 11:41:04;;;;;;;5.50;5.13;;;;;;;10.37;100.00;101276.97;6082704;23;20030;-72
2023/01/02 11:43:49;;;;;;;5.05;4.72;;;;;;;10.04;100.00;101234.59;6086535;23;20606;-69
2023/01/02 11:46:21;;;;;;;4.97;4.68;;;;;;;10.07;100.00;101213.50;6081606;23;20096;-70
2023/01/02 11:48:50;;;;;;;5.25;4.95;;;;;;;10.65;100.00;101302.06;6090529;23;20029;-70